Wednesday, October 18, 2017, 5:56 PM EDT
Back to Local

KMGW, Morgantown Muni-hart Field

Location: Morgantown, WV, United States Lat: 39.65
Local Time: 5:56 PM EDT (21:56 GMT) Lon: -79.917
Time Zone: US/Eastern Elev: 1246 ft

Show me the last for .
Show Decoded

2017-10-18 16:53 METAR KMGW 182053Z 21004KT 10SM CLR 22/M03 A3025 RMK AO2 SLP241 T02221028 56018
                 =
2017-10-18 15:53 METAR KMGW 181953Z VRB04KT 10SM CLR 23/00 A3026 RMK AO2 SLP246 T02280000 =
2017-10-18 14:53 METAR KMGW 181853Z 10SM CLR 22/02 A3027 RMK AO2 SLP251 T02220017 =
2017-10-18 13:53 METAR KMGW 181753Z 00000KT 10SM CLR 22/04 A3030 RMK AO2 SLP260 T02170044 10217
                 20039 58022 =
2017-10-18 12:53 METAR KMGW 181653Z 00000KT 10SM CLR 19/03 A3034 RMK AO2 SLP272 T01940033 =
2017-10-18 11:53 METAR KMGW 181553Z 09008KT 10SM CLR 18/04 A3036 RMK AO2 SLP281 T01780039 =
2017-10-18 10:53 METAR KMGW 181453Z 08005KT 10SM CLR 15/04 A3037 RMK AO2 SLP286 T01500044 50000 =
2017-10-18 09:53 METAR KMGW 181353Z 00000KT 10SM CLR 11/06 A3038 RMK AO2 SLP290 T01110061 =
2017-10-18 08:53 METAR KMGW 181253Z 00000KT 10SM CLR 06/04 A3038 RMK AO2 SLP293 T00610039 =
2017-10-18 07:53 METAR KMGW 181153Z 00000KT 10SM CLR 04/02 A3037 RMK AO2 SLP288 T00390022 10061
                 20039 53009 =
2017-10-18 06:53 METAR KMGW 181053Z 00000KT 10SM CLR 04/02 A3035 RMK AO2 SLP283 T00440022 =
2017-10-18 05:53 METAR KMGW 180953Z AUTO 00000KT 10SM CLR 04/02 A3034 RMK AO2 SLP277 T00440022 =
2017-10-18 04:53 METAR KMGW 180853Z AUTO 00000KT 10SM CLR 04/03 A3034 RMK AO2 SLP276 T00440028
                 55000 =
2017-10-18 03:53 METAR KMGW 180753Z AUTO 00000KT 10SM CLR 04/03 A3033 RMK AO2 SLP274 T00390028 =
2017-10-18 02:53 METAR KMGW 180653Z AUTO 00000KT 10SM CLR 06/03 A3033 RMK AO2 SLP274 T00560028 =
2017-10-18 01:53 METAR KMGW 180553Z AUTO 00000KT 10SM CLR 06/03 A3034 RMK AO2 SLP276 T00610033
                 10111 20056 51005 =
2017-10-18 00:53 METAR KMGW 180453Z AUTO 00000KT 10SM CLR 07/03 A3033 RMK AO2 SLP274 T00720033
                 401610017 =
2017-10-17 23:53 METAR KMGW 180353Z AUTO 00000KT 10SM CLR 07/03 A3033 RMK AO2 SLP275 T00720033 =
2017-10-17 22:53 METAR KMGW 180253Z 00000KT 10SM CLR 07/04 A3032 RMK AO2 SLP273 T00720039 52009 =
2017-10-17 21:53 METAR KMGW 180153Z 18003KT 10SM CLR 07/04 A3032 RMK AO2 SLP273 T00720039 =
2017-10-17 20:53 METAR KMGW 180053Z 19003KT 10SM CLR 09/04 A3030 RMK AO2 SLP267 T00890039 =
2017-10-17 19:53 METAR KMGW 172353Z 16003KT 10SM CLR 11/03 A3029 RMK AO2 SLP265 T01060033 10161
                 20106 53001 =
2017-10-17 18:53 METAR KMGW 172253Z 19003KT 10SM CLR 13/02 A3028 RMK AO2 SLP260 T01330022 =

Support USWX by starting your Amazon purchase here.